Terminal Aerodrome Forecast
Issued by NWS

Home | Current Version | Previous Version | Text Only | Print | Product List | Glossary On
Versions: 1 2 3 4 5 6 7 8 9 10 11 12 13 14 15 16 17 18 19 20 21 22 23 24 25 26 27
851
FTUS43 KDLH 071717 AAB
TAFHIB
TAF AMD
KHIB 071717Z 0717/0812 27012G18KT 1 1/2SM -SN BLSN BR OVC017
      TEMPO 0717/0718 3SM -SN BR OVC025
     FM071800 27014G22KT 2SM -SN BLSN OVC012
     FM072100 29014G21KT 6SM BLSN VCSH OVC015
     FM080200 31012G20KT P6SM VCSH OVC015
     FM080700 32012KT P6SM OVC015=

USA.gov is the U.S. government's official web portal to all federal, state and local government web resources and services.